Time;durP1;ratioP1;P1;durP2;ratioP2;P2;SDS_P1;SDS_P2;PMS_P1;PMS_P2;Temp;Humidity;BMP_temperature;BMP_pressure;BME280_temperature;BME280_humidity;BME280_pressure;Samples;Min_cycle;Max_cycle;Signal;HPM_P1;HPM_P2
2023/07/20 00:09:08;;;;;;;8.3;4.4;;;;;;;17.42;80.23;;;;;
2023/07/20 00:20:09;;;;;;;6.2;3.5;;;;;;;17.37;78;;;;;
2023/07/20 00:30:09;;;;;;;6.2;3.5;;;;;;;17.32;79.52;;;;;
2023/07/20 00:41:09;;;;;;;6.2;3.5;;;;;;;17.31;79.05;;;;;
2023/07/20 00:51:09;;;;;;;5;3.2;;;;;;;17.16;79.39;;;;;
2023/07/20 01:01:09;;;;;;;5;3.2;;;;;;;17.04;82.77;;;;;
2023/07/20 01:12:09;;;;;;;5;3.2;;;;;;;17.08;83.4;;;;;
2023/07/20 01:23:09;;;;;;;6.2;3.6;;;;;;;16.94;84.95;;;;;
2023/07/20 01:33:09;;;;;;;6.2;3.6;;;;;;;16.97;85.88;;;;;
2023/07/20 01:43:09;;;;;;;6.2;3.6;;;;;;;17.22;85.32;;;;;
2023/07/20 01:54:09;;;;;;;11.3;6.8;;;;;;;17.41;85.21;;;;;
2023/07/20 02:04:09;;;;;;;11.3;6.8;;;;;;;17.55;84.93;;;;;
2023/07/20 02:15:09;;;;;;;11.3;6.8;;;;;;;17.67;83.72;;;;;
2023/07/20 02:25:09;;;;;;;11.3;7.6;;;;;;;17.66;83.09;;;;;
2023/07/20 02:35:10;;;;;;;11.3;7.6;;;;;;;17.73;82.73;;;;;
2023/07/20 02:45:12;;;;;;;11.3;7.6;;;;;;;17.76;82.57;;;;;
2023/07/20 02:56:12;;;;;;;12;5.8;;;;;;;17.73;82.21;;;;;
2023/07/20 03:07:12;;;;;;;12;5.8;;;;;;;17.73;81.63;;;;;
2023/07/20 03:18:12;;;;;;;7.1;4.9;;;;;;;17.73;81.36;;;;;
2023/07/20 03:28:12;;;;;;;7.1;4.9;;;;;;;17.68;81.18;;;;;
2023/07/20 03:38:12;;;;;;;7.1;4.9;;;;;;;17.64;80.85;;;;;
2023/07/20 03:48:12;;;;;;;9.7;4.7;;;;;;;17.6;80.42;;;;;
2023/07/20 03:58:12;;;;;;;9.7;4.7;;;;;;;17.54;80.72;;;;;
2023/07/20 04:09:12;;;;;;;9.7;4.7;;;;;;;17.48;80.65;;;;;
2023/07/20 04:19:12;;;;;;;6.4;4.2;;;;;;;17.49;80.91;;;;;
2023/07/20 04:29:12;;;;;;;6.4;4.2;;;;;;;17.52;79.9;;;;;
2023/07/20 04:40:12;;;;;;;6.4;4.2;;;;;;;17.85;79.26;;;;;
2023/07/20 04:50:12;;;;;;;7.9;4.5;;;;;;;18.08;78.18;;;;;
2023/07/20 05:00:13;;;;;;;7.9;4.5;;;;;;;18.02;77.12;;;;;
2023/07/20 05:11:12;;;;;;;7.9;4.5;;;;;;;18.02;77.76;;;;;
2023/07/20 05:21:13;;;;;;;8.2;4.7;;;;;;;17.89;77.2;;;;;
2023/07/20 05:31:12;;;;;;;8.2;4.7;;;;;;;18.22;76.01;;;;;
2023/07/20 05:41:12;;;;;;;8.2;4.7;;;;;;;18.88;73.22;;;;;
2023/07/20 05:52:12;;;;;;;10.9;5.3;;;;;;;19.16;71.66;;;;;
2023/07/20 06:03:13;;;;;;;10.9;5.3;;;;;;;19.57;70.15;;;;;
2023/07/20 06:14:13;;;;;;;10.9;5.3;;;;;;;19.84;69.76;;;;;
2023/07/20 06:25:12;;;;;;;8.8;5.2;;;;;;;19.94;68.57;;;;;
2023/07/20 06:35:12;;;;;;;8.8;5.2;;;;;;;20.41;68.51;;;;;
2023/07/20 06:45:12;;;;;;;8.8;5.2;;;;;;;20.59;67.48;;;;;
2023/07/20 06:56:13;;;;;;;7.1;4.2;;;;;;;20.35;66.44;;;;;
2023/07/20 07:06:12;;;;;;;7.1;4.2;;;;;;;20.3;66.44;;;;;
2023/07/20 07:16:18;;;;;;;8.2;4.3;;;;;;;20.49;68.41;;;;;
2023/07/20 07:27:13;;;;;;;8.2;4.3;;;;;;;20.82;65.17;;;;;
2023/07/20 07:38:12;;;;;;;8.2;4.3;;;;;;;21.1;65.54;;;;;
2023/07/20 07:49:13;;;;;;;7;4.1;;;;;;;21.54;64.95;;;;;
2023/07/20 08:00:14;;;;;;;7;4.1;;;;;;;21.97;62.72;;;;;
2023/07/20 08:11:13;;;;;;;7;4.1;;;;;;;22.47;60.92;;;;;
2023/07/20 08:21:12;;;;;;;7;3.3;;;;;;;22.5;59.27;;;;;
2023/07/20 08:31:13;;;;;;;7;3.3;;;;;;;22.42;59.09;;;;;
2023/07/20 08:42:12;;;;;;;7;3.3;;;;;;;22.5;59.42;;;;;
2023/07/20 08:52:12;;;;;;;4.5;2.2;;;;;;;23.3;59.35;;;;;
2023/07/20 09:02:14;;;;;;;4.5;2.2;;;;;;;22.75;57.25;;;;;
2023/07/20 09:13:12;;;;;;;4.5;2.2;;;;;;;23.08;57.05;;;;;
2023/07/20 09:24:12;;;;;;;5;2.4;;;;;;;23.56;56.63;;;;;
2023/07/20 09:34:13;;;;;;;5;2.4;;;;;;;23;56.31;;;;;
2023/07/20 09:44:12;;;;;;;5;2.4;;;;;;;23.34;56.41;;;;;
2023/07/20 09:55:13;;;;;;;4.3;1.9;;;;;;;23.94;55.41;;;;;
2023/07/20 10:05:13;;;;;;;4.3;1.9;;;;;;;23.71;54.57;;;;;
2023/07/20 10:16:13;;;;;;;4;2;;;;;;;23.5;53.86;;;;;
2023/07/20 10:27:12;;;;;;;4;2;;;;;;;23.4;55.54;;;;;
2023/07/20 10:38:12;;;;;;;4;2;;;;;;;23.76;51.52;;;;;
2023/07/20 10:48:13;;;;;;;4.6;2.2;;;;;;;24;54.13;;;;;
2023/07/20 10:58:14;;;;;;;4.6;2.2;;;;;;;23.96;53.61;;;;;
2023/07/20 11:08:13;;;;;;;4.6;2.2;;;;;;;24.07;52.42;;;;;
2023/07/20 11:18:13;;;;;;;4.5;2.1;;;;;;;24.42;52.83;;;;;
2023/07/20 11:29:13;;;;;;;4.5;2.1;;;;;;;24.6;48.76;;;;;
2023/07/20 11:39:12;;;;;;;4.5;2.1;;;;;;;24.21;51.78;;;;;
2023/07/20 11:49:13;;;;;;;5.8;2.4;;;;;;;24.71;51.1;;;;;
2023/07/20 11:59:12;;;;;;;5.8;2.4;;;;;;;25.03;51;;;;;
2023/07/20 12:10:13;;;;;;;5.8;2.4;;;;;;;24.49;48.8;;;;;
2023/07/20 12:20:13;;;;;;;4.4;2.2;;;;;;;24.19;50.69;;;;;
2023/07/20 12:31:13;;;;;;;4.4;2.2;;;;;;;25.09;47.06;;;;;
2023/07/20 12:42:14;;;;;;;4.4;2.2;;;;;;;25.29;47.3;;;;;
2023/07/20 12:53:13;;;;;;;6.5;3.4;;;;;;;25.58;47.28;;;;;
2023/07/20 13:03:13;;;;;;;6.5;3.4;;;;;;;25.46;47.11;;;;;
2023/07/20 13:14:13;;;;;;;6.5;3.4;;;;;;;25.43;46.25;;;;;
2023/07/20 13:24:13;;;;;;;6.7;3.4;;;;;;;25.3;46.43;;;;;
2023/07/20 13:35:13;;;;;;;6.7;3.4;;;;;;;25.76;45.5;;;;;
2023/07/20 13:45:13;;;;;;;6.7;3.4;;;;;;;25.84;43.27;;;;;
2023/07/20 13:56:13;;;;;;;5.3;2.6;;;;;;;25.82;43.9;;;;;
2023/07/20 14:06:13;;;;;;;5.3;2.6;;;;;;;26.26;42.51;;;;;
2023/07/20 14:17:13;;;;;;;6.1;3.1;;;;;;;26.07;40.82;;;;;
2023/07/20 14:28:13;;;;;;;6.1;3.1;;;;;;;26.3;41.43;;;;;
2023/07/20 14:38:13;;;;;;;6.1;3.1;;;;;;;25.55;44;;;;;
2023/07/20 14:48:13;;;;;;;7.4;2.8;;;;;;;25.76;43.23;;;;;
2023/07/20 14:59:13;;;;;;;7.4;2.8;;;;;;;24.74;44.52;;;;;
2023/07/20 15:10:13;;;;;;;7.4;2.8;;;;;;;24;47.59;;;;;
2023/07/20 15:21:13;;;;;;;6.2;2.9;;;;;;;22.44;54.86;;;;;
2023/07/20 15:31:13;;;;;;;6.2;2.9;;;;;;;20.23;65.11;;;;;
2023/07/20 15:42:13;;;;;;;6.2;2.9;;;;;;;18.25;74.62;;;;;
2023/07/20 15:52:13;;;;;;;5.7;3;;;;;;;18.15;73.84;;;;;
2023/07/20 16:02:13;;;;;;;5.7;3;;;;;;;19.3;75.99;;;;;
2023/07/20 16:13:13;;;;;;;5.7;3;;;;;;;20.29;70.35;;;;;
2023/07/20 16:24:13;;;;;;;3.9;1.3;;;;;;;21.16;69.05;;;;;
2023/07/20 16:35:13;;;;;;;3.9;1.3;;;;;;;22.29;65.57;;;;;
2023/07/20 16:45:13;;;;;;;3.9;1.3;;;;;;;22.25;64.98;;;;;
2023/07/20 16:56:13;;;;;;;3.1;1.1;;;;;;;24.17;58.91;;;;;
2023/07/20 17:06:13;;;;;;;3.1;1.1;;;;;;;22.51;62.8;;;;;
2023/07/20 17:16:13;;;;;;;3.1;1.1;;;;;;;23.68;59.6;;;;;
2023/07/20 17:27:15;;;;;;;3.2;1.5;;;;;;;22.19;66.64;;;;;
2023/07/20 17:37:16;;;;;;;3.2;1.5;;;;;;;21.48;69.32;;;;;
2023/07/20 17:48:14;;;;;;;4.5;2;;;;;;;21.89;69.59;;;;;
2023/07/20 17:59:13;;;;;;;4.5;2;;;;;;;21.81;67.28;;;;;
2023/07/20 18:10:14;;;;;;;4.5;2;;;;;;;20.67;68.47;;;;;
2023/07/20 18:21:13;;;;;;;4.4;2.2;;;;;;;19.86;70.55;;;;;
2023/07/20 18:32:13;;;;;;;4.4;2.2;;;;;;;18.92;75.33;;;;;
2023/07/20 18:42:14;;;;;;;4.4;2.2;;;;;;;18.53;75.02;;;;;
2023/07/20 18:52:14;;;;;;;5.7;2.9;;;;;;;18.12;76.71;;;;;
2023/07/20 19:02:13;;;;;;;5.7;2.9;;;;;;;17.74;78.49;;;;;
2023/07/20 19:12:14;;;;;;;5.7;2.9;;;;;;;17.21;80.8;;;;;
2023/07/20 19:22:15;;;;;;;4.5;2.8;;;;;;;16.8;82.8;;;;;
2023/07/20 19:33:13;;;;;;;4.5;2.8;;;;;;;16.62;81.98;;;;;
2023/07/20 19:44:13;;;;;;;4.5;2.8;;;;;;;16.44;81.77;;;;;
2023/07/20 19:55:13;;;;;;;4.6;2.7;;;;;;;16.25;83.2;;;;;
2023/07/20 20:05:14;;;;;;;4.6;2.7;;;;;;;16.22;82.86;;;;;
2023/07/20 20:15:15;;;;;;;4.6;2.7;;;;;;;16.15;81.93;;;;;
2023/07/20 20:26:13;;;;;;;9.5;7;;;;;;;15.96;82.68;;;;;
2023/07/20 20:37:13;;;;;;;9.5;7;;;;;;;15.92;81.2;;;;;
2023/07/20 20:48:13;;;;;;;11.9;9.8;;;;;;;15.89;80.52;;;;;
2023/07/20 20:58:13;;;;;;;11.9;9.8;;;;;;;15.66;82.73;;;;;
2023/07/20 21:09:13;;;;;;;11.9;9.8;;;;;;;15.52;82.53;;;;;
2023/07/20 21:19:14;;;;;;;9.8;4.5;;;;;;;15.37;82.11;;;;;
2023/07/20 21:30:14;;;;;;;9.8;4.5;;;;;;;15.23;82.44;;;;;
2023/07/20 21:41:13;;;;;;;9.8;4.5;;;;;;;15.05;82.52;;;;;
2023/07/20 21:52:13;;;;;;;5.5;2.8;;;;;;;14.84;82.52;;;;;
2023/07/20 22:02:14;;;;;;;5.5;2.8;;;;;;;14.64;84.5;;;;;
2023/07/20 22:13:16;;;;;;;5.5;2.8;;;;;;;14.47;84.62;;;;;
2023/07/20 22:23:13;;;;;;;5.2;2.7;;;;;;;14.28;84.31;;;;;
2023/07/20 22:34:13;;;;;;;5.2;2.7;;;;;;;14.14;84.18;;;;;
2023/07/20 22:45:13;;;;;;;5.2;2.7;;;;;;;14.01;85.77;;;;;
2023/07/20 22:56:14;;;;;;;6.5;3;;;;;;;13.81;85.94;;;;;
2023/07/20 23:07:14;;;;;;;6.5;3;;;;;;;13.64;87.26;;;;;
2023/07/20 23:18:13;;;;;;;7.2;4;;;;;;;13.53;86.99;;;;;
2023/07/20 23:28:14;;;;;;;7.2;4;;;;;;;13.51;86.76;;;;;
2023/07/20 23:39:14;;;;;;;7.2;4;;;;;;;13.4;86.37;;;;;
2023/07/20 23:50:15;;;;;;;4.8;2.8;;;;;;;13.21;86.46;;;;;
